Germfask, Michigan
Current Conditions -  °F | °C
As of 5:14 PM on Thursday 27 Nov 2014 (Local Time) from KISQ Reporting Station
Light Snow Light Snow  
Wind Chill:   Ceiling: Unl
Heat Index: 14°   Visibility: 10mi
Dew Point: 10°   Wind: 8mph
Humidity: 84%   Direction: 310°NW
Pressure: 30.29"   Gusts: NA
Location:  46.25°N, 85.93°W
Report Text: KISQ 272214Z AUTO 31007KT 10SM -SN CLR M10/M12 A3029 RMK AO2 T11001122
Loading
Personal Weather Stations






























Interactive Weather Map New forecast layout! Learn more

10-Day Weather Forecast

Advertisements
Track Severe Weather on mobile